Time;durP1;ratioP1;P1;durP2;ratioP2;P2;SDS_P1;SDS_P2;PMS_P1;PMS_P2;Temp;Humidity;BMP_temperature;BMP_pressure;BME280_temperature;BME280_humidity;BME280_pressure;Samples;Min_cycle;Max_cycle;Signal;HPM_P1;HPM_P2
2021/05/15 00:00:40;;;;;;;14.05;5.43;;;13.20;99.90;;;;;;5058698;28;20024;-88
2021/05/15 00:03:06;;;;;;;12.32;5.05;;;9.00;99.90;;;;;;5050885;28;20414;-87
2021/05/15 00:05:32;;;;;;;13.75;5.20;;;9.10;99.90;;;;;;5038587;28;20020;-88
2021/05/15 00:07:59;;;;;;;13.60;4.88;;;9.20;99.90;;;;;;5040794;28;20074;-89
2021/05/15 00:10:25;;;;;;;14.52;5.13;;;9.20;99.90;;;;;;5078426;28;20562;-87
2021/05/15 00:12:50;;;;;;;10.38;4.90;;;11.70;99.90;;;;;;5090254;28;20041;-88
2021/05/15 00:15:17;;;;;;;14.25;4.90;;;9.20;99.90;;;;;;5059590;28;20363;-88
2021/05/15 00:17:44;;;;;;;10.35;4.28;;;9.30;99.90;;;;;;5058989;28;20452;-88
2021/05/15 00:20:13;;;;;;;11.80;5.05;;;9.20;99.90;;;;;;5059423;28;20031;-88
2021/05/15 00:22:45;;;;;;;12.98;5.95;;;9.30;99.90;;;;;;5058187;28;20024;-88
2021/05/15 00:25:13;;;;;;;8.40;4.10;;;9.30;99.90;;;;;;5077770;28;20024;-88
2021/05/15 00:27:39;;;;;;;13.13;4.80;;;9.30;99.90;;;;;;5090387;28;20020;-88
2021/05/15 00:30:11;;;;;;;8.80;4.18;;;10.30;99.90;;;;;;5039151;28;20043;-87
2021/05/15 00:32:37;;;;;;;12.30;5.68;;;9.30;99.90;;;;;;5042247;28;20020;-88
2021/05/15 00:35:04;;;;;;;12.20;4.65;;;9.40;99.90;;;;;;5076869;28;20115;-88
2021/05/15 00:37:30;;;;;;;10.82;5.05;;;9.40;99.90;;;;;;5058547;28;20029;-88
2021/05/15 00:39:56;;;;;;;16.67;5.53;;;9.40;99.90;;;;;;5058927;28;20485;-88
2021/05/15 00:42:21;;;;;;;11.93;5.25;;;9.40;99.90;;;;;;5064177;28;20029;-88
2021/05/15 00:44:47;;;;;;;11.60;4.70;;;10.00;99.90;;;;;;5041070;28;20477;-87
2021/05/15 00:47:15;;;;;;;9.85;4.47;;;9.40;99.90;;;;;;5038721;28;20021;-87
2021/05/15 00:49:42;;;;;;;14.45;5.35;;;10.30;99.90;;;;;;5038720;28;20466;-88
2021/05/15 00:52:08;;;;;;;10.40;4.85;;;9.30;99.90;;;;;;5038659;28;20108;-88
2021/05/15 00:54:36;;;;;;;10.98;4.93;;;9.40;99.90;;;;;;5074709;28;20054;-87
2021/05/15 00:57:03;;;;;;;14.10;5.68;;;9.40;99.90;;;;;;5058120;28;20393;-87
2021/05/15 00:59:29;;;;;;;15.80;5.43;;;9.40;99.90;;;;;;5057932;28;20028;-87
2021/05/15 01:01:54;;;;;;;12.90;6.25;;;9.40;99.90;;;;;;5057272;28;20028;-88
2021/05/15 01:04:20;;;;;;;18.30;5.72;;;9.40;99.90;;;;;;5057515;28;20013;-88
2021/05/15 01:06:46;;;;;;;14.60;5.05;;;9.40;99.90;;;;;;5057895;28;20021;-88
2021/05/15 01:09:11;;;;;;;15.18;5.57;;;9.40;99.90;;;;;;5074663;28;20024;-88
2021/05/15 01:11:37;;;;;;;10.48;5.30;;;10.40;99.90;;;;;;5039808;28;20040;-87
2021/05/15 01:14:04;;;;;;;13.30;5.63;;;9.50;99.90;;;;;;5073310;28;20074;-87
2021/05/15 01:16:34;;;;;;;12.60;5.28;;;9.50;99.90;;;;;;5076573;28;20036;-88
2021/05/15 01:19:00;;;;;;;9.43;4.65;;;9.50;99.90;;;;;;5075534;28;20024;-89
2021/05/15 01:21:26;;;;;;;14.50;5.60;;;9.60;99.90;;;;;;5075349;28;20375;-88
2021/05/15 01:23:52;;;;;;;12.25;5.55;;;9.50;99.90;;;;;;5041184;28;20086;-88
2021/05/15 01:26:20;;;;;;;15.07;5.22;;;9.60;99.90;;;;;;5038084;28;20112;-88
2021/05/15 01:28:47;;;;;;;9.75;5.30;;;9.60;99.90;;;;;;5037920;28;20017;-87
2021/05/15 01:31:13;;;;;;;13.00;5.15;;;10.40;99.90;;;;;;5044576;28;20020;-87
2021/05/15 01:33:39;;;;;;;17.08;5.97;;;9.60;99.90;;;;;;5062031;28;20029;-87
2021/05/15 01:36:09;;;;;;;11.55;4.43;;;9.60;99.90;;;;;;5057120;28;20473;-88
2021/05/15 01:38:35;;;;;;;13.07;5.55;;;9.60;99.90;;;;;;5074833;28;20033;-88
2021/05/15 01:41:06;;;;;;;15.25;5.60;;;9.60;99.90;;;;;;5056814;28;20029;-88
2021/05/15 01:43:32;;;;;;;14.82;5.88;;;9.60;99.90;;;;;;5043755;28;20478;-88
2021/05/15 01:45:58;;;;;;;12.43;5.40;;;9.50;99.90;;;;;;5038771;28;20024;-86
2021/05/15 01:48:24;;;;;;;13.90;5.22;;;9.60;99.90;;;;;;5059078;28;20028;-87
2021/05/15 01:51:04;;;;;;;11.18;5.80;;;9.50;99.90;;;;;;5040395;28;20071;-87
2021/05/15 01:53:39;;;;;;;14.18;4.95;;;9.60;99.90;;;;;;5050224;28;20109;-87
2021/05/15 01:56:07;;;;;;;16.42;7.15;;;9.60;99.90;;;;;;5057219;28;20370;-87
2021/05/15 01:58:33;;;;;;;12.50;5.75;;;9.60;99.90;;;;;;5057341;28;20016;-88
2021/05/15 02:00:59;;;;;;;15.63;6.38;;;10.60;99.90;;;;;;5056592;28;20044;-87
2021/05/15 02:03:25;;;;;;;12.05;5.60;;;9.70;99.90;;;;;;5055534;28;20474;-87
2021/05/15 02:05:52;;;;;;;15.88;5.68;;;9.60;99.90;;;;;;5064015;28;20020;-88
2021/05/15 02:08:19;;;;;;;15.00;5.47;;;12.50;99.90;;;;;;5055587;28;20021;-87
2021/05/15 02:10:45;;;;;;;12.98;6.18;;;9.60;99.90;;;;;;5036747;28;20459;-87
2021/05/15 02:13:11;;;;;;;12.57;5.57;;;9.60;99.90;;;;;;5036535;28;20071;-87
2021/05/15 02:15:39;;;;;;;10.27;5.57;;;11.50;99.90;;;;;;5036302;28;20020;-87
2021/05/15 02:18:06;;;;;;;13.93;5.72;;;9.70;99.90;;;;;;5036422;28;20031;-87
2021/05/15 02:20:33;;;;;;;13.75;5.05;;;9.70;99.90;;;;;;5037013;28;20025;-88
2021/05/15 02:22:59;;;;;;;13.88;5.47;;;9.70;99.90;;;;;;5050982;28;20106;-88
2021/05/15 02:25:26;;;;;;;12.10;5.63;;;9.70;99.90;;;;;;5076202;28;20074;-89
2021/05/15 02:27:52;;;;;;;15.18;5.53;;;9.70;99.90;;;;;;5070200;28;20024;-87
2021/05/15 02:30:19;;;;;;;14.30;5.55;;;9.70;99.90;;;;;;5056162;28;20016;-87
2021/05/15 02:32:45;;;;;;;12.13;5.72;;;9.70;99.90;;;;;;5068831;28;20021;-88
2021/05/15 02:35:11;;;;;;;10.07;5.32;;;9.70;99.90;;;;;;5055655;28;20351;-87
2021/05/15 02:37:37;;;;;;;16.75;6.50;;;9.70;99.90;;;;;;5055220;28;20102;-87
2021/05/15 02:40:04;;;;;;;15.82;5.32;;;9.70;99.90;;;;;;5046177;28;20020;-88
2021/05/15 02:42:30;;;;;;;18.38;5.93;;;9.70;99.90;;;;;;5073949;28;21120;-88
2021/05/15 02:44:56;;;;;;;12.88;5.43;;;9.60;99.90;;;;;;5056189;28;20017;-87
2021/05/15 02:47:22;;;;;;;11.40;5.63;;;9.40;99.90;;;;;;5056086;28;20027;-88
2021/05/15 02:49:48;;;;;;;14.38;6.47;;;9.50;99.90;;;;;;5074013;28;20025;-88
2021/05/15 02:52:14;;;;;;;14.05;6.50;;;9.50;99.90;;;;;;5074642;28;20024;-88
2021/05/15 02:54:40;;;;;;;10.18;5.13;;;9.60;99.90;;;;;;5053997;28;20029;-89
2021/05/15 02:57:07;;;;;;;12.60;5.53;;;9.60;99.90;;;;;;5057999;28;20393;-89
2021/05/15 02:59:33;;;;;;;14.88;5.50;;;9.60;99.90;;;;;;5062299;28;20060;-90
2021/05/15 03:01:59;;;;;;;15.80;6.00;;;9.50;99.90;;;;;;5059350;28;20389;-88
2021/05/15 03:04:25;;;;;;;17.52;6.65;;;9.60;99.90;;;;;;5055006;28;20025;-88
2021/05/15 03:06:51;;;;;;;11.75;5.47;;;9.60;99.90;;;;;;5073162;28;20032;-88
2021/05/15 03:09:16;;;;;;;9.25;4.35;;;11.80;99.90;;;;;;5055447;28;20027;-88
2021/05/15 03:11:42;;;;;;;8.75;4.53;;;9.50;99.90;;;;;;5055594;28;20397;-87
2021/05/15 03:14:07;;;;;;;12.43;4.97;;;9.50;99.90;;;;;;5059711;28;20032;-88
2021/05/15 03:16:33;;;;;;;14.27;5.97;;;9.30;99.90;;;;;;5093809;28;20031;-87
2021/05/15 03:18:59;;;;;;;13.60;6.45;;;9.50;99.90;;;;;;5075820;28;20454;-88
2021/05/15 03:21:24;;;;;;;12.52;5.68;;;9.50;99.90;;;;;;5093994;28;20427;-88
2021/05/15 03:23:50;;;;;;;12.15;6.13;;;9.50;99.90;;;;;;5080557;28;20478;-88
2021/05/15 03:26:16;;;;;;;15.15;6.07;;;9.50;99.90;;;;;;5073011;28;20024;-88
2021/05/15 03:28:42;;;;;;;11.40;5.70;;;9.50;99.90;;;;;;5045124;28;20021;-87
2021/05/15 03:31:07;;;;;;;10.30;5.22;;;9.40;99.90;;;;;;5045354;28;20029;-89
2021/05/15 03:33:33;;;;;;;11.68;5.20;;;9.50;99.90;;;;;;5054465;28;20370;-88
2021/05/15 03:35:58;;;;;;;14.82;6.20;;;9.50;99.90;;;;;;5055451;28;20021;-87
2021/05/15 03:38:24;;;;;;;11.68;5.57;;;9.50;99.90;;;;;;5073534;28;20034;-87
2021/05/15 03:40:50;;;;;;;17.00;6.15;;;9.50;99.90;;;;;;5059016;28;20029;-88
2021/05/15 03:43:15;;;;;;;12.13;5.18;;;9.50;99.90;;;;;;5050339;28;20024;-87
2021/05/15 03:45:41;;;;;;;16.92;5.82;;;9.50;99.90;;;;;;5077191;28;20064;-87
2021/05/15 03:48:07;;;;;;;11.60;5.97;;;9.50;99.90;;;;;;5078250;28;20020;-87
2021/05/15 03:50:33;;;;;;;11.27;5.78;;;9.50;99.90;;;;;;5059031;28;20460;-87
2021/05/15 03:52:58;;;;;;;13.18;5.85;;;9.50;99.90;;;;;;5058009;28;20459;-87
2021/05/15 03:55:24;;;;;;;12.38;5.22;;;9.40;99.90;;;;;;5076585;28;20112;-88
2021/05/15 03:57:50;;;;;;;14.65;5.80;;;9.40;99.90;;;;;;5074422;28;20040;-88
2021/05/15 04:00:16;;;;;;;13.20;5.35;;;9.50;99.90;;;;;;5056873;28;20021;-88
2021/05/15 04:02:42;;;;;;;17.73;5.80;;;9.40;99.90;;;;;;5041146;28;20032;-88
2021/05/15 04:05:08;;;;;;;12.60;5.32;;;9.40;99.90;;;;;;5058937;28;20017;-89
2021/05/15 04:07:34;;;;;;;12.98;5.75;;;9.50;99.90;;;;;;5077221;28;20029;-89
2021/05/15 04:09:59;;;;;;;14.35;5.68;;;9.90;99.90;;;;;;5091645;28;20028;-88
2021/05/15 04:12:30;;;;;;;13.75;5.78;;;9.40;99.90;;;;;;5078552;28;20488;-88
2021/05/15 04:15:09;;;;;;;14.63;6.50;;;9.60;99.90;;;;;;5038666;28;20090;-88
2021/05/15 04:17:34;;;;;;;15.05;6.38;;;9.60;99.90;;;;;;5038530;28;20119;-88
2021/05/15 04:20:00;;;;;;;14.20;5.45;;;12.40;99.90;;;;;;5038574;28;20502;-89
2021/05/15 04:22:26;;;;;;;16.77;5.88;;;9.60;99.90;;;;;;5056450;28;20036;-89
2021/05/15 04:24:53;;;;;;;13.68;5.72;;;9.60;99.90;;;;;;5074368;28;20035;-88
2021/05/15 04:27:19;;;;;;;15.20;6.30;;;9.60;99.90;;;;;;5096755;28;20016;-89
2021/05/15 04:29:45;;;;;;;13.80;5.18;;;9.60;99.90;;;;;;5096737;28;20039;-88
2021/05/15 04:32:10;;;;;;;15.77;6.97;;;9.30;99.90;;;;;;5056125;28;20021;-87
2021/05/15 04:34:36;;;;;;;11.75;5.38;;;9.50;99.90;;;;;;5055038;28;20047;-88
2021/05/15 04:37:02;;;;;;;12.75;6.25;;;9.50;99.90;;;;;;5057896;28;20541;-88
2021/05/15 04:39:29;;;;;;;15.13;6.13;;;9.70;99.90;;;;;;5058893;28;20082;-88
2021/05/15 04:41:58;;;;;;;15.15;5.78;;;9.70;99.90;;;;;;5077549;28;20103;-88
2021/05/15 04:44:23;;;;;;;17.70;7.18;;;9.80;99.90;;;;;;5057521;28;20032;-87
2021/05/15 04:46:50;;;;;;;16.02;6.88;;;9.80;99.90;;;;;;5062042;28;20013;-86
2021/05/15 04:49:16;;;;;;;12.43;5.38;;;9.80;99.90;;;;;;5062454;28;20027;-88
2021/05/15 04:51:42;;;;;;;17.77;7.53;;;9.80;99.90;;;;;;5079901;28;20042;-88
2021/05/15 04:54:08;;;;;;;15.32;5.95;;;12.10;99.90;;;;;;5075414;28;20036;-89
2021/05/15 04:56:34;;;;;;;15.00;7.07;;;9.90;99.90;;;;;;5059731;28;20119;-89
2021/05/15 04:59:00;;;;;;;16.70;6.25;;;9.90;99.90;;;;;;5045964;28;20059;-89
2021/05/15 05:01:25;;;;;;;15.27;7.00;;;10.00;99.90;;;;;;5037951;28;20048;-88
2021/05/15 05:03:51;;;;;;;12.77;5.65;;;10.00;99.90;;;;;;5047843;28;20436;-88
2021/05/15 05:06:17;;;;;;;17.92;6.38;;;10.00;99.90;;;;;;5057472;28;20015;-88
2021/05/15 05:08:43;;;;;;;12.88;6.70;;;10.10;99.90;;;;;;5072907;22;20017;-76
2021/05/15 05:11:08;;;;;;;14.48;6.53;;;9.40;99.90;;;;;;5070296;23;20044;-87
2021/05/15 05:13:34;;;;;;;16.70;6.95;;;10.10;99.90;;;;;;5055779;28;20499;-88
2021/05/15 05:16:00;;;;;;;18.55;6.70;;;10.10;99.90;;;;;;5076205;28;20017;-86
2021/05/15 05:18:26;;;;;;;12.57;6.10;;;10.10;99.90;;;;;;5068174;28;20087;-86
2021/05/15 05:20:52;;;;;;;15.93;6.57;;;10.10;99.90;;;;;;5037845;28;20482;-86
2021/05/15 05:23:18;;;;;;;16.38;6.60;;;10.10;99.90;;;;;;5038062;28;20115;-87
2021/05/15 05:25:44;;;;;;;14.20;6.07;;;10.10;99.90;;;;;;5055969;28;20104;-86
2021/05/15 05:28:13;;;;;;;15.57;6.15;;;10.00;99.90;;;;;;5037612;28;20074;-86
2021/05/15 05:30:39;;;;;;;;;;;10.20;99.90;;;;;;5051584;28;20020;-87
2021/05/15 05:33:04;;;;;;;15.48;5.88;;;10.20;99.90;;;;;;5046276;28;19919;-87
2021/05/15 05:35:34;;;;;;;18.58;7.82;;;10.20;99.90;;;;;;5076918;28;20025;-86
2021/05/15 05:38:00;;;;;;;15.30;7.78;;;10.30;99.90;;;;;;5057672;28;20035;-87
2021/05/15 05:40:25;;;;;;;16.40;6.43;;;10.30;99.90;;;;;;5057308;28;20021;-87
2021/05/15 05:42:51;;;;;;;14.63;7.78;;;10.30;99.90;;;;;;5074505;28;20024;-87
2021/05/15 05:45:18;;;;;;;15.10;6.53;;;10.50;99.90;;;;;;5056499;28;20017;-86
2021/05/15 05:47:43;;;;;;;18.95;7.18;;;10.00;99.90;;;;;;5047580;28;20107;-86
2021/05/15 05:50:10;;;;;;;15.07;7.28;;;10.30;99.90;;;;;;5074912;28;20058;-86
2021/05/15 05:52:36;;;;;;;16.98;7.15;;;10.70;99.90;;;;;;5075604;28;20358;-86
2021/05/15 05:55:04;;;;;;;22.30;7.10;;;10.70;99.90;;;;;;5039219;28;20028;-86
2021/05/15 05:57:32;;;;;;;19.73;7.03;;;10.80;99.90;;;;;;5055771;28;20028;-87
2021/05/15 05:59:57;;;;;;;17.30;7.13;;;10.90;99.90;;;;;;5037137;28;20092;-86
2021/05/15 06:02:23;;;;;;;12.82;6.57;;;10.90;99.90;;;;;;5038022;28;20167;-87
2021/05/15 06:04:49;;;;;;;21.13;8.27;;;10.90;99.90;;;;;;5054396;28;20062;-87
2021/05/15 06:07:14;;;;;;;16.38;6.40;;;11.10;99.90;;;;;;5076532;28;20039;-89
2021/05/15 06:09:40;;;;;;;17.25;7.07;;;11.20;99.90;;;;;;5041568;28;20070;-87
2021/05/15 06:12:07;;;;;;;19.92;7.63;;;11.00;99.90;;;;;;5037103;28;20028;-85
2021/05/15 06:14:34;;;;;;;14.13;7.50;;;11.20;99.90;;;;;;5045091;28;20024;-86
2021/05/15 06:16:59;;;;;;;15.20;7.50;;;11.30;99.90;;;;;;5054519;28;20074;-86
2021/05/15 06:19:25;;;;;;;14.80;6.40;;;11.30;99.90;;;;;;5074739;28;20032;-86
2021/05/15 06:21:51;;;;;;;16.52;6.70;;;13.30;99.90;;;;;;5074781;28;20036;-88
2021/05/15 06:24:16;;;;;;;19.13;7.00;;;10.10;99.90;;;;;;5056949;28;20067;-87
2021/05/15 06:26:42;;;;;;;19.13;8.60;;;11.10;99.90;;;;;;5056486;28;20069;-86
2021/05/15 06:29:08;;;;;;;18.17;8.50;;;10.70;99.90;;;;;;5069908;28;20024;-85
2021/05/15 06:31:34;;;;;;;20.90;8.65;;;12.20;99.90;;;;;;5072960;28;20373;-89
2021/05/15 06:33:59;;;;;;;19.90;9.07;;;11.00;99.90;;;;;;5056294;28;20028;-87
2021/05/15 06:36:25;;;;;;;20.70;8.65;;;13.20;99.90;;;;;;5055597;28;20024;-88
2021/05/15 06:38:51;;;;;;;21.83;9.20;;;10.90;99.90;;;;;;5056711;28;20029;-87
2021/05/15 06:41:16;;;;;;;20.48;9.82;;;10.90;99.90;;;;;;5075247;28;20385;-87
2021/05/15 06:43:42;;;;;;;19.65;8.23;;;11.00;99.90;;;;;;5067539;28;20111;-86
2021/05/15 06:46:07;;;;;;;22.38;9.70;;;10.90;99.90;;;;;;5073008;28;20063;-86
2021/05/15 06:48:33;;;;;;;18.08;9.35;;;11.10;99.90;;;;;;5038474;28;20025;-86
2021/05/15 06:50:59;;;;;;;20.52;9.32;;;11.20;99.90;;;;;;5036471;28;20021;-86
2021/05/15 06:53:24;;;;;;;20.65;9.50;;;14.00;99.90;;;;;;5055598;28;20025;-86
2021/05/15 06:55:50;;;;;;;19.92;9.45;;;13.90;99.90;;;;;;5036733;28;20029;-86
2021/05/15 06:58:15;;;;;;;25.15;9.55;;;11.20;99.90;;;;;;5059533;28;20021;-86
2021/05/15 07:00:41;;;;;;;20.02;9.55;;;11.20;99.90;;;;;;5069595;28;20032;-85
2021/05/15 07:03:07;;;;;;;16.73;9.50;;;14.20;99.90;;;;;;5036608;28;20048;-88
2021/05/15 07:05:33;;;;;;;21.95;9.13;;;;;;;;;;5037135;28;20043;-87
2021/05/15 07:08:00;;;;;;;17.58;8.18;;;11.10;99.90;;;;;;5036929;28;20032;-87
2021/05/15 07:10:26;;;;;;;20.15;8.85;;;11.20;99.90;;;;;;5054067;28;20025;-84
2021/05/15 07:12:52;;;;;;;19.20;8.20;;;11.20;99.90;;;;;;5037608;28;20091;-86
2021/05/15 07:15:19;;;;;;;15.27;7.93;;;12.10;99.90;;;;;;5064189;28;20033;-86
2021/05/15 07:17:45;;;;;;;19.40;9.15;;;11.30;99.90;;;;;;5059578;28;20484;-87
2021/05/15 07:20:11;;;;;;;17.92;9.48;;;11.40;99.90;;;;;;5068195;28;20043;-88
2021/05/15 07:22:39;;;;;;;19.88;8.52;;;11.50;99.90;;;;;;5039817;28;20389;-86
2021/05/15 07:25:05;;;;;;;16.67;8.63;;;11.40;99.90;;;;;;5039646;28;20120;-86
2021/05/15 07:27:30;;;;;;;22.35;8.77;;;11.50;99.90;;;;;;5039722;28;20477;-86
2021/05/15 07:29:56;;;;;;;16.90;8.07;;;11.40;99.90;;;;;;5058520;28;20025;-87
2021/05/15 07:32:23;;;;;;;18.30;7.38;;;11.90;99.90;;;;;;5039873;28;20020;-86
2021/05/15 07:34:49;;;;;;;19.15;7.47;;;11.40;99.90;;;;;;5040055;28;20029;-87
2021/05/15 07:37:15;;;;;;;18.58;8.43;;;11.50;99.90;;;;;;5039388;28;20032;-87
2021/05/15 07:39:42;;;;;;;20.02;8.40;;;11.60;99.90;;;;;;5040344;28;20040;-86
2021/05/15 07:42:08;;;;;;;19.80;7.80;;;11.60;99.90;;;;;;5042285;28;20551;-87
2021/05/15 07:44:33;;;;;;;16.23;8.23;;;11.70;99.90;;;;;;5060924;28;20029;-87
2021/05/15 07:46:59;;;;;;;15.40;8.15;;;11.80;99.90;;;;;;5060065;28;20024;-87
2021/05/15 07:49:25;;;;;;;15.60;7.10;;;11.90;99.90;;;;;;5059193;28;20025;-87
2021/05/15 07:51:52;;;;;;;15.35;6.90;;;11.90;99.90;;;;;;5059277;28;20095;-87
2021/05/15 07:54:20;;;;;;;18.27;7.45;;;14.00;99.90;;;;;;5077371;28;20016;-86
2021/05/15 07:56:46;;;;;;;12.75;6.20;;;12.10;99.90;;;;;;5056973;28;20048;-87
2021/05/15 07:59:12;;;;;;;9.98;5.15;;;11.90;99.90;;;;;;5056581;28;20091;-88
2021/05/15 08:01:37;;;;;;;24.58;6.97;;;15.20;99.90;;;;;;5051435;28;20033;-88
2021/05/15 08:04:03;;;;;;;15.25;6.40;;;12.10;99.90;;;;;;5058368;28;20073;-88
2021/05/15 08:06:55;;;;;;;10.43;5.45;;;12.20;99.90;;;;;;5052066;28;20017;-87
2021/05/15 08:09:23;;;;;;;11.77;6.18;;;12.50;99.90;;;;;;5039726;28;20021;-88
2021/05/15 08:11:59;;;;;;;12.75;4.97;;;12.80;99.90;;;;;;5051000;23;20501;-78
2021/05/15 08:14:34;;;;;;;9.75;4.88;;;14.70;99.90;;;;;;5061169;28;20035;-77
2021/05/15 08:17:01;;;;;;;6.70;3.55;;;13.30;99.90;;;;;;5079384;28;20123;-80
2021/05/15 08:19:26;;;;;;;7.82;3.75;;;13.90;98.30;;;;;;5079220;28;20055;-78
2021/05/15 08:21:53;;;;;;;7.80;3.45;;;;;;;;;;5059207;28;20497;-78
2021/05/15 08:24:20;;;;;;;6.47;3.40;;;13.60;92.80;;;;;;5113057;22;20489;-77
2021/05/15 08:26:46;;;;;;;7.63;3.17;;;13.60;92.80;;;;;;5058578;28;20020;-76
2021/05/15 08:29:25;;;;;;;9.98;4.15;;;13.50;93.50;;;;;;5076227;28;20073;-74
2021/05/15 08:32:01;;;;;;;7.13;3.10;;;13.50;95.20;;;;;;5076935;28;20392;-77
2021/05/15 08:34:33;;;;;;;9.77;3.83;;;15.80;98.60;;;;;;5042139;28;20029;-77
2021/05/15 08:37:40;;;;;;;6.97;3.80;;;13.80;97.60;;;;;;5038906;28;20037;-78
2021/05/15 08:40:07;;;;;;;9.00;4.25;;;12.90;94.20;;;;;;5040688;28;20029;-77
2021/05/15 08:42:36;;;;;;;11.48;4.30;;;14.40;92.80;;;;;;5058492;28;20112;-79
2021/05/15 08:45:04;;;;;;;9.82;4.47;;;13.70;92.80;;;;;;5018361;28;20105;-77
2021/05/15 08:47:30;;;;;;;13.88;5.22;;;13.60;94.00;;;;;;5035775;28;20029;-76
2021/05/15 08:50:00;;;;;;;10.75;4.90;;;13.70;95.30;;;;;;5034285;28;20017;-77
2021/05/15 08:52:26;;;;;;;12.88;5.57;;;13.60;94.70;;;;;;5035670;28;20029;-79
2021/05/15 08:54:53;;;;;;;13.38;6.78;;;13.30;97.20;;;;;;5037702;28;20025;-78
2021/05/15 08:57:19;;;;;;;17.52;8.30;;;13.20;97.00;;;;;;5039643;28;20021;-78
2021/05/15 08:59:49;;;;;;;13.68;7.50;;;13.10;97.90;;;;;;5038104;28;20024;-74
2021/05/15 09:02:16;;;;;;;17.20;8.38;;;12.90;99.90;;;;;;5056365;28;20021;-78
2021/05/15 09:04:42;;;;;;;20.90;9.15;;;12.80;99.90;;;;;;5056243;28;20025;-77
2021/05/15 09:07:09;;;;;;;16.70;7.38;;;12.90;99.90;;;;;;5056672;28;20028;-79
2021/05/15 09:09:35;;;;;;;18.70;7.93;;;13.10;99.90;;;;;;5057772;28;20024;-77
2021/05/15 09:12:01;;;;;;;16.98;8.02;;;13.40;99.90;;;;;;5055113;28;20021;-77
2021/05/15 09:14:27;;;;;;;14.15;6.93;;;13.60;99.90;;;;;;5037829;28;20367;-77
2021/05/15 09:16:55;;;;;;;10.30;5.13;;;13.70;98.80;;;;;;5036804;28;20021;-78
2021/05/15 09:19:26;;;;;;;12.88;5.63;;;13.70;96.50;;;;;;5055588;28;20029;-78
2021/05/15 09:22:03;;;;;;;14.77;6.07;;;14.50;97.60;;;;;;5037140;28;20025;-76
2021/05/15 09:24:38;;;;;;;12.98;6.35;;;14.10;95.90;;;;;;5064337;23;20204;-75
2021/05/15 09:27:09;;;;;;;12.50;5.32;;;14.30;94.10;;;;;;5055379;28;20021;-77
2021/05/15 09:29:49;;;;;;;13.07;6.03;;;14.50;93.50;;;;;;5054439;28;20516;-76
2021/05/15 09:32:26;;;;;;;14.35;5.68;;;14.70;93.00;;;;;;5054344;28;20063;-75
2021/05/15 09:34:52;;;;;;;10.77;5.07;;;14.80;91.50;;;;;;5055157;28;20071;-77
2021/05/15 09:37:31;;;;;;;9.60;5.05;;;15.00;90.90;;;;;;5054239;28;20032;-77
2021/05/15 09:39:57;;;;;;;10.32;4.90;;;15.20;91.10;;;;;;5054648;28;20111;-76
2021/05/15 09:42:23;;;;;;;14.35;5.20;;;15.30;88.00;;;;;;5036123;28;20029;-77
2021/05/15 09:44:48;;;;;;;10.43;4.35;;;15.50;87.50;;;;;;5060782;28;20078;-75
2021/05/15 09:47:18;;;;;;;10.60;3.85;;;15.40;83.50;;;;;;5074253;28;20020;-77
2021/05/15 09:49:44;;;;;;;13.10;5.32;;;15.20;84.40;;;;;;5055969;28;20485;-74
2021/05/15 09:52:09;;;;;;;11.25;5.18;;;15.00;86.90;;;;;;5074046;28;20074;-75
2021/05/15 09:54:40;;;;;;;12.05;5.88;;;15.00;90.50;;;;;;5068248;23;20067;-75
2021/05/15 09:57:15;;;;;;;9.27;4.75;;;14.80;86.40;;;;;;5073834;28;20021;-75
2021/05/15 09:59:43;;;;;;;13.77;5.60;;;14.90;89.80;;;;;;5068933;23;20050;-74
2021/05/15 10:02:13;;;;;;;11.02;5.60;;;15.10;90.60;;;;;;5073779;28;20107;-75
2021/05/15 10:04:41;;;;;;;10.82;5.40;;;15.10;91.70;;;;;;5037476;28;20474;-76
2021/05/15 10:07:21;;;;;;;13.70;6.38;;;15.30;86.90;;;;;;5053815;28;20029;-75
2021/05/15 10:09:47;;;;;;;9.98;5.25;;;15.40;84.40;;;;;;5054051;28;20021;-75
2021/05/15 10:12:13;;;;;;;11.70;5.82;;;15.60;87.00;;;;;;5035680;28;20025;-75
2021/05/15 10:14:39;;;;;;;14.63;5.10;;;16.00;86.20;;;;;;5053368;28;20120;-75
2021/05/15 10:17:04;;;;;;;13.98;6.18;;;16.40;84.50;;;;;;5054038;28;20501;-76
2021/05/15 10:19:30;;;;;;;11.38;5.82;;;16.40;81.80;;;;;;5053758;28;20032;-76
2021/05/15 10:22:00;;;;;;;11.10;5.80;;;16.30;78.70;;;;;;5035623;28;20547;-76
2021/05/15 10:24:28;;;;;;;11.68;5.53;;;16.20;80.50;;;;;;5053523;28;20564;-73
2021/05/15 10:27:10;;;;;;;13.70;6.10;;;15.90;80.60;;;;;;5035598;28;20494;-75
2021/05/15 10:29:40;;;;;;;11.70;5.50;;;15.70;82.30;;;;;;5053565;28;20059;-76
2021/05/15 10:32:15;;;;;;;15.20;6.38;;;15.60;84.20;;;;;;5053025;28;20067;-74
2021/05/15 10:34:44;;;;;;;11.18;5.90;;;15.70;84.10;;;;;;5053357;28;20036;-76
2021/05/15 10:37:21;;;;;;;12.20;5.57;;;15.70;78.70;;;;;;5076547;23;20186;-75
2021/05/15 10:39:48;;;;;;;10.73;5.68;;;15.60;79.20;;;;;;5073384;28;20021;-75
2021/05/15 10:42:25;;;;;;;12.90;6.25;;;15.40;81.70;;;;;;5073448;28;20029;-74
2021/05/15 10:44:50;;;;;;;14.82;6.45;;;15.40;83.30;;;;;;5071810;28;20027;-74
2021/05/15 10:47:16;;;;;;;14.88;6.20;;;15.40;82.60;;;;;;5057203;28;20497;-75
2021/05/15 10:49:44;;;;;;;12.60;6.85;;;15.50;83.80;;;;;;5044675;28;20381;-75
2021/05/15 10:52:12;;;;;;;13.25;6.43;;;15.70;81.70;;;;;;5077418;28;20021;-76
2021/05/15 10:54:42;;;;;;;12.13;6.32;;;15.70;80.00;;;;;;5077157;28;20039;-75
2021/05/15 10:57:10;;;;;;;13.05;7.15;;;15.70;82.00;;;;;;5059347;28;20044;-77
2021/05/15 10:59:37;;;;;;;16.92;7.03;;;15.90;84.30;;;;;;5077428;28;20020;-76
2021/05/15 11:02:11;;;;;;;12.27;7.05;;;16.20;80.40;;;;;;5076733;28;20075;-76
2021/05/15 11:04:51;;;;;;;13.95;6.60;;;16.50;78.50;;;;;;5076921;28;20051;-76
2021/05/15 11:07:21;;;;;;;13.60;6.88;;;16.80;80.30;;;;;;5076943;28;20032;-76
2021/05/15 11:09:56;;;;;;;17.50;9.05;;;16.80;77.80;;;;;;5077168;28;20067;-76
2021/05/15 11:12:23;;;;;;;16.05;8.02;;;16.60;71.90;;;;;;5059294;28;20029;-74
2021/05/15 11:14:50;;;;;;;17.80;8.65;;;16.30;81.20;;;;;;5077063;28;20401;-75
2021/05/15 11:17:24;;;;;;;18.05;7.90;;;16.20;77.30;;;;;;5076860;28;20023;-76
2021/05/15 11:19:55;;;;;;;14.07;8.13;;;16.50;77.00;;;;;;5058911;28;20068;-74
2021/05/15 11:22:42;;;;;;;15.98;8.82;;;16.50;76.90;;;;;;5058694;28;20024;-74
2021/05/15 11:25:14;;;;;;;16.70;9.18;;;16.40;74.00;;;;;;5075864;28;20083;-76
2021/05/15 11:28:01;;;;;;;16.08;9.07;;;16.40;74.50;;;;;;5076638;28;20543;-75
2021/05/15 11:30:41;;;;;;;19.08;9.85;;;16.40;77.30;;;;;;5076683;28;20059;-76
2021/05/15 11:33:16;;;;;;;18.48;10.43;;;16.40;78.80;;;;;;5058239;28;20500;-75
2021/05/15 11:35:47;;;;;;;17.60;9.88;;;16.30;78.10;;;;;;5076391;28;20566;-77
2021/05/15 11:38:15;;;;;;;20.83;10.52;;;16.20;77.30;;;;;;5076351;28;20122;-75
2021/05/15 11:40:52;;;;;;;21.80;11.32;;;16.20;79.40;;;;;;5074695;28;20029;-76
2021/05/15 11:43:24;;;;;;;20.88;9.95;;;16.00;79.10;;;;;;5075997;28;20527;-74
2021/05/15 11:45:51;;;;;;;21.10;10.77;;;15.70;76.90;;;;;;5076509;28;20032;-75
2021/05/15 11:48:20;;;;;;;21.13;10.70;;;15.40;78.70;;;;;;5076444;28;20025;-75
2021/05/15 11:51:01;;;;;;;;;;;15.20;82.70;;;;;;5058836;28;20020;-75
2021/05/15 11:53:28;;;;;;;20.63;10.82;;;15.10;83.40;;;;;;5058303;28;19950;-75
2021/05/15 11:55:54;;;;;;;22.52;10.45;;;15.00;82.80;;;;;;5076295;28;20021;-74
2021/05/15 11:58:20;;;;;;;21.10;10.40;;;14.80;86.10;;;;;;5075130;28;20081;-75
2021/05/15 12:00:46;;;;;;;18.67;10.25;;;14.70;86.50;;;;;;5057787;28;20111;-75
2021/05/15 12:03:19;;;;;;;19.70;10.93;;;14.50;88.90;;;;;;5044299;28;20033;-73
2021/05/15 12:05:44;;;;;;;22.40;11.70;;;14.40;89.40;;;;;;5038260;28;20054;-75
2021/05/15 12:08:12;;;;;;;21.45;10.93;;;14.30;89.70;;;;;;5055947;28;20438;-74
2021/05/15 12:10:39;;;;;;;22.70;12.77;;;14.30;91.80;;;;;;5039160;28;20029;-75
2021/05/15 12:13:05;;;;;;;21.80;12.30;;;14.20;91.70;;;;;;5055504;28;20029;-73
2021/05/15 12:15:32;;;;;;;26.77;11.45;;;14.20;93.30;;;;;;5075604;28;20024;-75
2021/05/15 12:17:59;;;;;;;20.77;12.13;;;14.20;94.70;;;;;;5058202;28;20107;-74
2021/05/15 12:20:32;;;;;;;26.85;12.25;;;14.20;96.80;;;;;;5055652;28;20029;-73
2021/05/15 12:23:15;;;;;;;26.80;14.00;;;14.30;99.20;;;;;;5055992;28;20025;-76
2021/05/15 12:25:55;;;;;;;27.23;13.63;;;14.30;99.90;;;;;;5055918;28;20021;-75
2021/05/15 12:28:23;;;;;;;28.27;13.32;;;14.30;99.90;;;;;;5037685;28;20021;-76
2021/05/15 12:30:49;;;;;;;24.27;12.73;;;14.30;99.90;;;;;;5055332;28;20025;-76
2021/05/15 12:33:18;;;;;;;26.85;14.20;;;14.40;99.90;;;;;;5055491;28;20025;-75
2021/05/15 12:36:03;;;;;;;26.20;13.52;;;14.50;99.90;;;;;;5056037;28;20025;-75
2021/05/15 12:38:31;;;;;;;23.70;13.10;;;14.70;99.90;;;;;;5056514;28;20029;-76
2021/05/15 12:41:12;;;;;;;20.92;11.95;;;14.90;99.90;;;;;;5055445;28;20397;-75
2021/05/15 12:43:39;;;;;;;27.42;13.52;;;15.00;99.90;;;;;;5055277;28;20115;-76